Accueil
METAR-TAF:

METAR-TAF

Aéroports :

Mexicali, Mexique

latitude: 32-37-50N, longitude: 115-14-30W, altitude: 22 m

Observation

Le bulletin a été fait il y a 4 heures et 47 minutes, à 03:40 UTC
Vent 5 kt de ouest/nord-ouest
Température 14°C
Humidité 13%
Pression 1021 hPa
Visibilité: 16.1 km
Ciel clair

METAR: MMML 020340Z 30005KT 10SM SKC 14/M14 A3014

Heure: 02:27 (08:27 UTC)

Prévision

Le bulletin a été fait il y a 3 heures et 23 minutes, à 05:04 UTC
Prévision valable du 02 à 06 UTC au 03 à 06 UTC
Vent 5 kt de ouest/nord-ouest
Visibilité: 10 km
Ciel clair
A partir de 02 à 1800 UTC
Vent 10 kt de ouest/nord-ouest
Visibilité: 10 km
Ciel clair
A partir de 03 à 0300 UTC
Vent 5 kt de ouest/sud-ouest
Visibilité: 10 km
Ciel clair

TAF: MMML 020504Z 0206/0306 30005KT P6SM SKC FM021800 30010KT P6SM SKC FM030300 24005KT P6SM SKC

Observations et prévisions météorologiques de plus de 4000 aéroports (messages METAR et TAF).

Les stations disponibles sont représentées par des disques jaunes et rouges sur la carte.

Passer la souris dessus pour voir le nom de la station.

Cliquer dessus pour voir les observations et prévisions météorologiques.

Pour changer de carte: cliquez sur les boutons verts avec une croix noire pour zoomer, sur le bouton vert avec un tiret pour effectuer un zoom arrière, ou sur les flèches vertes pour les cartes adjacentes.


METAR-TAF: